Time;durP1;ratioP1;P1;durP2;ratioP2;P2;SDS_P1;SDS_P2;PMS_P1;PMS_P2;Temp;Humidity;BMP_temperature;BMP_pressure;BME280_temperature;BME280_humidity;BME280_pressure;Samples;Min_cycle;Max_cycle;Signal;HPM_P1;HPM_P2
2023/12/20 00:02:09;;;;;;;;;;;;;;;16.66;47.21;101186.16;5007679;28;1091;-54
2023/12/20 00:04:34;;;;;;;;;;;;;;;16.34;47.81;101174.16;4996527;28;1223;-53
2023/12/20 00:07:00;;;;;;;;;;;;;;;17.66;44.98;101179.00;4988318;28;1136;-54
2023/12/20 00:09:25;;;;;;;;;;;;;;;17.20;46.01;101174.16;4979970;28;1139;-51
2023/12/20 00:11:51;;;;;;;;;;;;;;;16.60;47.42;101182.56;4979359;28;1973;-50
2023/12/20 00:14:16;;;;;;;;;;;;;;;16.27;48.22;101170.81;4981284;28;1064;-53
2023/12/20 00:16:42;;;;;;;;;;;;;;;17.26;46.15;101175.81;5005605;28;1135;-55
2023/12/20 00:19:07;;;;;;;;;;;;;;;17.70;44.49;101167.16;4998362;28;1138;-52
2023/12/20 00:21:33;;;;;;;;;;;;;;;16.76;46.88;101169.78;4987871;28;1138;-55
2023/12/20 00:23:58;;;;;;;;;;;;;;;16.38;47.84;101168.94;4983151;28;1227;-52
2023/12/20 00:26:24;;;;;;;;;;;;;;;17.72;44.86;101164.16;4994192;28;1176;-51
2023/12/20 00:28:49;;;;;;;;;;;;;;;16.92;46.34;101156.97;4981408;28;1231;-52
2023/12/20 00:31:15;;;;;;;;;;;;;;;16.47;47.65;101156.41;4989819;28;1894;-54
2023/12/20 00:33:43;;;;;;;;;;;;;;;17.02;46.71;101157.03;4985083;28;1172;-52
2023/12/20 00:36:09;;;;;;;;;;;;;;;17.65;44.94;101147.91;4997382;28;1167;-56
2023/12/20 00:38:35;;;;;;;;;;;;;;;16.81;46.57;101145.06;4983761;28;1080;-56
2023/12/20 00:41:00;;;;;;;;;;;;;;;16.37;48.03;101151.66;4989077;28;1140;-57
2023/12/20 00:43:26;;;;;;;;;;;;;;;17.21;46.14;101138.16;4993962;28;1249;-56
2023/12/20 00:45:52;;;;;;;;;;;;;;;17.50;45.31;101139.63;4989386;28;1061;-56
2023/12/20 00:48:17;;;;;;;;;;;;;;;16.66;47.01;101140.34;4984858;28;1156;-57
2023/12/20 00:50:43;;;;;;;;;;;;;;;16.28;47.93;101135.94;4995135;28;1057;-54
2023/12/20 00:53:08;;;;;;;;;;;;;;;17.17;45.96;101138.97;4985175;28;1899;-56
2023/12/20 00:55:34;;;;;;;;;;;;;;;17.41;45.14;101140.13;4987582;28;1151;-57
2023/12/20 00:58:00;;;;;;;;;;;;;;;16.61;47.22;101129.31;4982885;28;1156;-52
2023/12/20 01:00:25;;;;;;;;;;;;;;;16.33;47.91;101133.25;4997833;28;1071;-57
2023/12/20 01:02:51;;;;;;;;;;;;;;;17.72;44.60;101131.97;4993614;28;1127;-54
2023/12/20 01:05:17;;;;;;;;;;;;;;;17.06;45.92;101129.84;4997549;28;1071;-57
2023/12/20 01:07:43;;;;;;;;;;;;;;;16.42;47.82;101121.50;4984542;28;1112;-55
2023/12/20 01:10:08;;;;;;;;;;;;;;;16.33;47.82;101112.09;4997765;28;1106;-53
2023/12/20 01:12:35;;;;;;;;;;;;;;;17.81;44.64;101115.75;4993029;28;1902;-55
2023/12/20 01:15:01;;;;;;;;;;;;;;;17.07;46.03;101106.78;4979634;28;1056;-56
2023/12/20 01:17:26;;;;;;;;;;;;;;;16.47;47.40;101112.47;4991622;28;1301;-56
2023/12/20 01:19:52;;;;;;;;;;;;;;;16.64;47.23;101104.06;4978304;28;1223;-55
2023/12/20 01:22:17;;;;;;;;;;;;;;;17.95;44.27;101113.31;4991127;28;1128;-55
2023/12/20 01:24:43;;;;;;;;;;;;;;;16.96;46.32;101103.16;4977618;28;1073;-55
2023/12/20 01:27:08;;;;;;;;;;;;;;;16.45;47.43;101097.34;4986219;28;1073;-56
2023/12/20 01:29:34;;;;;;;;;;;;;;;16.16;48.29;101105.94;4978252;28;1057;-56
2023/12/20 01:31:59;;;;;;;;;;;;;;;17.54;45.04;101102.22;4977657;28;1983;-53
2023/12/20 01:34:25;;;;;;;;;;;;;;;17.33;45.23;101096.69;4978066;28;1076;-55
2023/12/20 01:36:51;;;;;;;;;;;;;;;16.55;47.08;101092.75;4993794;28;1227;-56
2023/12/20 01:39:17;;;;;;;;;;;;;;;16.41;47.58;101089.66;4996153;28;1147;-56
2023/12/20 01:41:42;;;;;;;;;;;;;;;17.81;44.44;101073.66;4984172;28;1227;-56
2023/12/20 01:44:08;;;;;;;;;;;;;;;16.96;46.23;101074.84;4987139;28;1188;-56
2023/12/20 01:46:33;;;;;;;;;;;;;;;16.39;47.64;101069.88;4990555;28;1053;-57
2023/12/20 01:48:59;;;;;;;;;;;;;;;16.43;47.76;101068.25;4986317;28;1224;-55
2023/12/20 01:51:24;;;;;;;;;;;;;;;17.84;44.40;101060.19;4986657;28;1890;-56
2023/12/20 01:53:50;;;;;;;;;;;;;;;16.97;46.12;101049.88;4987430;28;1172;-56
2023/12/20 01:56:15;;;;;;;;;;;;;;;16.39;47.44;101047.91;4979626;28;1317;-57
2023/12/20 01:58:43;;;;;;;;;;;;;;;16.61;47.32;101052.44;4983631;28;877;-56
2023/12/20 02:01:09;;;;;;;;;;;;;;;17.84;44.07;101040.09;4982639;28;1180;-57
2023/12/20 02:03:36;;;;;;;;;;;;;;;16.82;46.47;101036.88;4985274;28;1071;-56
2023/12/20 02:06:02;;;;;;;;;;;;;;;16.32;47.72;101025.38;4981314;28;1163;-57
2023/12/20 02:08:28;;;;;;;;;;;;;;;16.75;47.03;101026.13;4995946;28;1063;-57
2023/12/20 02:10:53;;;;;;;;;;;;;;;17.92;43.86;101026.66;4984126;28;1207;-55
2023/12/20 02:13:19;;;;;;;;;;;;;;;16.88;46.39;101018.50;4996907;28;1910;-55
2023/12/20 02:15:45;;;;;;;;;;;;;;;16.42;47.58;101013.63;4985903;28;1051;-55
2023/12/20 02:18:10;;;;;;;;;;;;;;;17.24;45.67;101013.94;4977644;28;1107;-54
2023/12/20 02:20:35;;;;;;;;;;;;;;;17.39;45.15;101004.06;4990560;28;1045;-56
2023/12/20 02:23:01;;;;;;;;;;;;;;;16.62;46.80;100995.59;4976858;28;914;-56
2023/12/20 02:25:26;;;;;;;;;;;;;;;16.32;47.59;101000.69;4984137;28;1533;-56
2023/12/20 02:27:52;;;;;;;;;;;;;;;17.82;44.18;101001.84;4991275;28;1280;-55
2023/12/20 02:30:17;;;;;;;;;;;;;;;17.11;45.68;100992.50;4986044;28;1113;-56
2023/12/20 02:32:43;;;;;;;;;;;;;;;16.52;46.97;100988.16;4981018;28;1906;-56
2023/12/20 02:35:08;;;;;;;;;;;;;;;16.20;47.79;100991.81;4982840;28;1119;-56
2023/12/20 02:37:34;;;;;;;;;;;;;;;17.58;44.73;100988.66;4981457;28;1239;-56
2023/12/20 02:39:59;;;;;;;;;;;;;;;17.39;44.89;100974.66;4989461;28;1092;-55
2023/12/20 02:42:25;;;;;;;;;;;;;;;16.60;46.70;100973.91;4980849;28;1094;-55
2023/12/20 02:44:50;;;;;;;;;;;;;;;16.38;47.48;100972.19;4983803;28;1147;-56
2023/12/20 02:47:16;;;;;;;;;;;;;;;17.85;44.18;100972.97;4991161;28;1143;-56
2023/12/20 02:49:41;;;;;;;;;;;;;;;17.04;45.54;100976.28;4983877;28;1621;-55
2023/12/20 02:52:07;;;;;;;;;;;;;;;16.43;47.17;100974.94;4990966;28;1909;-55
2023/12/20 02:54:32;;;;;;;;;;;;;;;16.87;46.35;100973.72;4992832;28;1167;-53
2023/12/20 02:56:58;;;;;;;;;;;;;;;17.89;43.85;100961.16;4991161;28;1069;-52
2023/12/20 02:59:23;;;;;;;;;;;;;;;16.81;46.26;100968.50;4980856;28;1034;-56
2023/12/20 03:01:49;;;;;;;;;;;;;;;16.41;47.45;100971.63;4989038;28;1072;-55
2023/12/20 03:04:14;;;;;;;;;;;;;;;17.30;45.47;100967.22;4995939;28;1405;-55
2023/12/20 03:06:40;;;;;;;;;;;;;;;17.45;44.68;100968.06;4991399;28;1033;-55
2023/12/20 03:09:06;;;;;;;;;;;;;;;16.68;46.82;100965.16;4993560;28;1024;-56
2023/12/20 03:11:31;;;;;;;;;;;;;;;16.30;47.37;100974.59;4980671;28;1914;-55
2023/12/20 03:13:57;;;;;;;;;;;;;;;17.53;44.94;100969.44;4980616;28;1092;-55
2023/12/20 03:16:22;;;;;;;;;;;;;;;17.40;44.77;100970.81;4987483;28;1347;-54
2023/12/20 03:18:48;;;;;;;;;;;;;;;16.69;46.42;100961.31;4998486;28;1134;-56
2023/12/20 03:21:13;;;;;;;;;;;;;;;16.30;47.54;100963.63;5007136;28;1054;-58
2023/12/20 03:23:40;;;;;;;;;;;;;;;17.58;44.75;100965.84;4981567;28;929;-57
2023/12/20 03:26:08;;;;;;;;;;;;;;;17.27;45.07;100966.66;4991814;28;1155;-58
2023/12/20 03:28:34;;;;;;;;;;;;;;;16.60;46.66;100962.94;4993797;28;1115;-57
2023/12/20 03:30:59;;;;;;;;;;;;;;;16.74;46.50;100958.56;4999290;28;1065;-57
2023/12/20 03:33:25;;;;;;;;;;;;;;;17.75;43.95;100955.41;4999660;28;1975;-57
2023/12/20 03:35:50;;;;;;;;;;;;;;;16.79;46.07;100960.53;4999231;28;1064;-57
2023/12/20 03:38:16;;;;;;;;;;;;;;;16.31;47.42;100955.09;4985995;28;1239;-56
2023/12/20 03:40:41;;;;;;;;;;;;;;;16.50;47.32;100958.22;4994184;28;867;-52
2023/12/20 03:43:07;;;;;;;;;;;;;;;17.90;43.83;100946.28;4998951;28;1150;-52
2023/12/20 03:45:32;;;;;;;;;;;;;;;17.03;45.79;100944.38;4991463;28;1144;-55
2023/12/20 03:47:58;;;;;;;;;;;;;;;16.47;47.12;100945.03;4981267;28;1060;-56
2023/12/20 03:50:25;;;;;;;;;;;;;;;17.02;45.95;100950.97;4999659;28;1067;-54
2023/12/20 03:52:50;;;;;;;;;;;;;;;17.71;43.93;100947.97;4997454;28;1914;-55
2023/12/20 03:55:16;;;;;;;;;;;;;;;16.73;46.24;100945.13;4990538;28;1274;-54
2023/12/20 03:57:42;;;;;;;;;;;;;;;16.29;47.52;100940.03;4992373;28;1072;-57
2023/12/20 04:00:10;;;;;;;;;;;;;;;17.08;45.64;100949.91;4983459;28;1207;-56
2023/12/20 04:02:39;;;;;;;;;;;;;;;17.69;43.98;100940.00;4977992;28;1059;-52
2023/12/20 04:05:05;;;;;;;;;;;;;;;16.72;46.17;100938.00;4982800;28;1036;-50
2023/12/20 04:07:30;;;;;;;;;;;;;;;16.70;46.68;100938.22;4988992;28;1195;-51
2023/12/20 04:09:56;;;;;;;;;;;;;;;17.94;43.44;100930.09;4992656;28;1169;-51
2023/12/20 04:12:21;;;;;;;;;;;;;;;16.98;45.59;100927.88;4984486;28;2633;-49
2023/12/20 04:14:47;;;;;;;;;;;;;;;16.51;46.75;100926.09;4983336;28;2066;-49
2023/12/20 04:17:12;;;;;;;;;;;;;;;16.35;47.38;100931.53;4984140;28;2133;-51
2023/12/20 04:19:38;;;;;;;;;;;;;;;17.80;43.80;100918.81;4979664;28;1990;-48
2023/12/20 04:22:03;;;;;;;;;;;;;;;16.95;45.88;100919.38;4977201;28;1827;-49
2023/12/20 04:24:29;;;;;;;;;;;;;;;16.41;47.15;100930.47;4989496;28;2085;-55
2023/12/20 04:26:54;;;;;;;;;;;;;;;17.41;45.02;100920.22;4987716;28;2160;-51
2023/12/20 04:29:20;;;;;;;;;;;;;;;17.48;44.38;100928.19;4984623;28;1104;-51
2023/12/20 04:31:45;;;;;;;;;;;;;;;16.61;46.58;100917.91;4997568;28;1902;-49
2023/12/20 04:34:11;;;;;;;;;;;;;;;16.34;47.27;100921.66;4984903;28;1097;-50
2023/12/20 04:36:36;;;;;;;;;;;;;;;17.14;45.78;100919.66;4996652;28;1083;-49
2023/12/20 04:39:02;;;;;;;;;;;;;;;17.42;44.50;100912.81;4986494;28;1037;-49
2023/12/20 04:41:28;;;;;;;;;;;;;;;16.57;46.67;100909.38;4981973;28;1215;-50
2023/12/20 04:43:54;;;;;;;;;;;;;;;16.21;47.50;100900.19;4997350;28;1024;-55
2023/12/20 04:46:19;;;;;;;;;;;;;;;17.12;45.72;100905.38;4985161;28;1123;-49
2023/12/20 04:48:44;;;;;;;;;;;;;;;17.68;44.00;100912.78;4996377;28;1033;-52
2023/12/20 04:51:10;;;;;;;;;;;;;;;16.67;46.39;100907.75;4989775;28;1989;-53
2023/12/20 04:53:35;;;;;;;;;;;;;;;16.20;47.65;100904.88;4978061;28;942;-47
2023/12/20 04:56:01;;;;;;;;;;;;;;;16.91;46.06;100903.47;4982685;28;1001;-56
2023/12/20 04:58:27;;;;;;;;;;;;;;;17.66;44.02;100895.75;4997087;28;1057;-53
2023/12/20 05:00:52;;;;;;;;;;;;;;;16.72;46.39;100905.03;4997012;28;1135;-57
2023/12/20 05:03:18;;;;;;;;;;;;;;;16.23;47.33;100904.31;4997215;28;1064;-55
2023/12/20 05:05:43;;;;;;;;;;;;;;;17.65;44.25;100900.41;4990449;28;960;-56
2023/12/20 05:08:12;;;;;;;;;;;;;;;16.96;45.64;100899.88;5006698;27;2700658;-57
2023/12/20 05:10:37;;;;;;;;;;;;;;;16.39;47.21;100902.47;5085241;28;1057;-60
2023/12/20 05:13:03;;;;;;;;;;;;;;;16.73;46.30;100892.94;5080375;28;1151;-59
2023/12/20 05:15:29;;;;;;;;;;;;;;;17.77;43.84;100889.94;5093544;28;1099;-60
2023/12/20 05:17:54;;;;;;;;;;;;;;;16.76;46.12;100884.19;5081406;28;1131;-59
2023/12/20 05:20:19;;;;;;;;;;;;;;;16.24;47.41;100880.44;5093358;28;1067;-56
2023/12/20 05:22:45;;;;;;;;;;;;;;;17.18;45.48;100885.03;5093215;28;1312;-59
2023/12/20 05:25:11;;;;;;;;;;;;;;;17.22;45.16;100886.16;5093457;28;1043;-59
2023/12/20 05:27:37;;;;;;;;;;;;;;;17.97;43.46;100885.50;5081042;28;1931;-59
2023/12/20 05:30:04;;;;;;;;;;;;;;;16.89;45.65;100891.09;5088724;28;889;-59
2023/12/20 05:32:30;;;;;;;;;;;;;;;16.33;46.62;100884.34;5093465;28;1024;-58
2023/12/20 05:34:55;;;;;;;;;;;;;;;16.04;46.46;100884.75;5080572;28;1062;-58
2023/12/20 05:37:21;;;;;;;;;;;;;;;17.66;44.12;100876.50;5090677;28;1118;-58
2023/12/20 05:39:46;;;;;;;;;;;;;;;16.65;46.09;100877.84;5087752;28;1194;-59
2023/12/20 05:42:12;;;;;;;;;;;;;;;16.11;46.43;100884.53;5083128;28;1344;-59
2023/12/20 05:44:37;;;;;;;;;;;;;;;17.21;45.58;100885.34;5092662;28;1055;-59
2023/12/20 05:47:03;;;;;;;;;;;;;;;16.89;45.88;100882.84;5090209;28;1915;-59
2023/12/20 05:49:28;;;;;;;;;;;;;;;16.47;46.82;100884.66;5089641;28;1105;-59
2023/12/20 05:51:54;;;;;;;;;;;;;;;17.85;43.78;100883.03;5091781;28;1156;-59
2023/12/20 05:54:19;;;;;;;;;;;;;;;16.65;46.04;100883.31;5071840;28;893;-56
2023/12/20 05:56:45;;;;;;;;;;;;;;;16.99;45.90;100876.53;5093344;28;979;-57
2023/12/20 05:59:10;;;;;;;;;;;;;;;17.17;44.98;100881.47;5092384;28;1183;-58
2023/12/20 06:01:36;;;;;;;;;;;;;;;16.31;46.34;100885.69;5092924;28;1106;-60
2023/12/20 06:04:03;;;;;;;;;;;;;;;16.21;46.04;100894.72;5090428;28;1100;-58
2023/12/20 06:06:28;;;;;;;;;;;;;;;16.03;45.42;100880.38;5083198;28;1917;-59
2023/12/20 06:08:54;;;;;;;;;;;;;;;15.89;45.33;100887.44;5092736;28;1179;-59
2023/12/20 06:11:19;;;;;;;;;;;;;;;17.43;45.07;100876.81;5089546;28;1059;-59
2023/12/20 06:13:45;;;;;;;;;;;;;;;16.66;46.27;100879.50;5088376;28;1063;-57
2023/12/20 06:16:10;;;;;;;;;;;;;;;16.15;46.79;100888.38;5092377;28;1098;-59
2023/12/20 06:18:38;;;;;;;;;;;;;;;17.45;44.92;100882.84;5079634;28;848;-60
2023/12/20 06:21:04;;;;;;;;;;;;;;;16.58;46.57;100888.25;5075837;28;1296;-58
2023/12/20 06:23:29;;;;;;;;;;;;;;;16.60;46.57;100880.56;5069146;28;1050;-58
2023/12/20 06:25:55;;;;;;;;;;;;;;;17.64;44.29;100882.25;5070144;28;1906;-58
2023/12/20 06:28:20;;;;;;;;;;;;;;;16.52;46.47;100890.16;5064242;28;1059;-59
2023/12/20 06:30:49;;;;;;;;;;;;;;;16.27;46.19;100890.06;5066157;28;999;-59
2023/12/20 06:33:14;;;;;;;;;;;;;;;16.02;45.70;100895.19;5074795;28;1083;-59
2023/12/20 06:35:40;;;;;;;;;;;;;;;17.09;45.62;100879.28;5078652;28;1300;-58
2023/12/20 06:38:05;;;;;;;;;;;;;;;16.75;46.31;100885.28;5062594;28;1423;-58
2023/12/20 06:40:31;;;;;;;;;;;;;;;16.25;46.34;100884.84;5074323;28;1278;-58
2023/12/20 06:42:56;;;;;;;;;;;;;;;16.02;45.99;100875.97;5068170;28;1258;-59
2023/12/20 06:45:22;;;;;;;;;;;;;;;16.62;46.51;100878.38;5071464;28;1210;-60
2023/12/20 06:47:47;;;;;;;;;;;;;;;17.53;44.53;100873.22;5067258;28;1902;-59
2023/12/20 06:50:14;;;;;;;;;;;;;;;16.41;46.66;100872.84;5073235;28;1372;-60
2023/12/20 06:52:39;;;;;;;;;;;;;;;17.05;45.97;100875.44;5069110;28;1226;-57
2023/12/20 06:55:05;;;;;;;;;;;;;;;16.85;45.97;100865.25;5070984;28;1079;-58
2023/12/20 06:57:30;;;;;;;;;;;;;;;16.23;46.78;100862.34;5075210;28;996;-57
2023/12/20 06:59:56;;;;;;;;;;;;;;;16.74;46.38;100856.16;5071069;28;1057;-57
2023/12/20 07:02:22;;;;;;;;;;;;;;;16.72;46.06;100845.44;5077097;28;1140;-58
2023/12/20 07:04:48;;;;;;;;;;;;;;;16.21;46.48;100840.66;5069134;28;1190;-61
2023/12/20 07:07:13;;;;;;;;;;;;;;;16.02;46.08;100847.72;5071308;28;1901;-57
2023/12/20 07:09:40;;;;;;;;;;;;;;;17.01;46.09;100847.69;5073067;28;1149;-58
2023/12/20 07:12:06;;;;;;;;;;;;;;;17.30;44.94;100841.63;5074207;28;1213;-56
2023/12/20 07:14:32;;;;;;;;;;;;;;;16.40;46.44;100853.91;5078292;28;1174;-57
2023/12/20 07:16:57;;;;;;;;;;;;;;;17.31;45.21;100839.72;5074858;28;1079;-54
2023/12/20 07:19:23;;;;;;;;;;;;;;;17.05;45.47;100848.78;5076190;28;1067;-59
2023/12/20 07:21:49;;;;;;;;;;;;;;;16.33;46.39;100842.34;5077585;28;1080;-57
2023/12/20 07:24:14;;;;;;;;;;;;;;;16.14;46.35;100842.81;5077614;28;1043;-58
2023/12/20 07:26:40;;;;;;;;;;;;;;;17.26;45.41;100835.03;5077850;28;1905;-57
2023/12/20 07:29:06;;;;;;;;;;;;;;;16.49;46.90;100835.78;5075083;28;1011;-52
2023/12/20 07:31:32;;;;;;;;;;;;;;;16.11;46.56;100828.84;5068163;28;1187;-57
2023/12/20 07:33:57;;;;;;;;;;;;;;;17.16;45.71;100826.81;5077319;28;1059;-57
2023/12/20 07:36:23;;;;;;;;;;;;;;;17.42;44.77;100814.66;5074860;28;1007;-57
2023/12/20 07:38:48;;;;;;;;;;;;;;;16.41;46.78;100817.94;5063640;28;1242;-59
2023/12/20 07:41:15;;;;;;;;;;;;;;;17.39;45.36;100814.38;5061646;28;970;-59
2023/12/20 07:43:41;;;;;;;;;;;;;;;16.60;46.59;100810.00;5063158;28;1131;-61
2023/12/20 07:46:08;;;;;;;;;;;;;;;16.30;46.42;100816.28;5064345;28;1902;-60
2023/12/20 07:48:37;;;;;;;;;;;;;;;16.06;46.42;100815.91;5074650;28;947;-58
2023/12/20 07:51:04;;;;;;;;;;;;;;;15.82;46.34;100810.91;5066735;28;999;-58
2023/12/20 07:53:29;;;;;;;;;;;;;;;17.13;45.78;100819.13;5067171;28;924;-57
2023/12/20 07:55:55;;;;;;;;;;;;;;;16.26;46.97;100817.91;5076372;28;1019;-58
2023/12/20 07:58:20;;;;;;;;;;;;;;;16.58;47.04;100811.41;5067057;28;1147;-58
2023/12/20 08:00:46;;;;;;;;;;;;;;;17.37;45.05;100805.63;5074554;28;1064;-59
2023/12/20 08:03:12;;;;;;;;;;;;;;;16.34;46.97;100806.41;5068875;28;995;-58
2023/12/20 08:05:40;;;;;;;;;;;;;;;16.07;47.19;100795.63;5076081;28;1034;-59
2023/12/20 08:08:17;;;;;;;;;;;;;;;17.36;45.24;100793.81;5073528;28;1209;-57
2023/12/20 08:10:43;;;;;;;;;;;;;;;17.28;45.24;100788.88;5072589;28;1166;-57
2023/12/20 08:13:08;;;;;;;;;;;;;;;16.53;46.59;100792.16;5069539;28;1061;-54
2023/12/20 08:15:34;;;;;;;;;;;;;;;16.16;46.62;100771.22;5069653;28;997;-58
2023/12/20 08:17:59;;;;;;;;;;;;;;;16.84;46.49;100770.22;5069752;28;1099;-61
2023/12/20 08:20:25;;;;;;;;;;;;;;;17.11;45.60;100769.94;5075772;28;1231;-61
2023/12/20 08:22:50;;;;;;;;;;;;;;;16.34;46.94;100778.13;5073299;28;1010;-58
2023/12/20 08:25:16;;;;;;;;;;;;;;;17.06;46.27;100770.75;5068862;28;1011;-57
2023/12/20 08:27:41;;;;;;;;;;;;;;;17.31;45.48;100771.81;5056050;28;1913;-55
2023/12/20 08:30:10;;;;;;;;;;;;;;;16.57;46.57;100771.31;5064469;28;1055;-59
2023/12/20 08:32:35;;;;;;;;;;;;;;;17.21;45.76;100761.69;5069609;28;841;-57
2023/12/20 08:35:01;;;;;;;;;;;;;;;16.97;45.94;100747.72;5060547;28;1155;-59
2023/12/20 08:37:26;;;;;;;;;;;;;;;16.41;46.62;100745.75;5074437;28;998;-63
2023/12/20 08:39:52;;;;;;;;;;;;;;;18.02;43.73;100736.91;5059261;28;1064;-56
2023/12/20 08:42:17;;;;;;;;;;;;;;;16.88;45.88;100736.44;5064503;28;1073;-58
2023/12/20 08:44:43;;;;;;;;;;;;;;;16.39;46.45;100728.75;5061231;28;1039;-58
2023/12/20 08:47:12;;;;;;;;;;;;;;;16.22;46.34;100720.78;5075319;28;1982;-58
2023/12/20 08:49:38;;;;;;;;;;;;;;;16.99;46.08;100720.78;5074831;28;1131;-60
2023/12/20 08:52:04;;;;;;;;;;;;;;;17.03;45.94;100707.31;5076209;28;1039;-60
2023/12/20 08:54:30;;;;;;;;;;;;;;;16.49;46.50;100716.94;5064102;28;912;-59
2023/12/20 08:56:55;;;;;;;;;;;;;;;16.14;46.44;100708.41;5069335;28;1021;-57
2023/12/20 08:59:21;;;;;;;;;;;;;;;16.26;46.84;100705.41;5058289;28;989;-57
2023/12/20 09:01:48;;;;;;;;;;;;;;;17.50;45.03;100694.22;5065112;28;1115;-61
2023/12/20 09:04:13;;;;;;;;;;;;;;;16.54;46.51;100695.00;5064179;28;1004;-60
2023/12/20 09:06:39;;;;;;;;;;;;;;;16.28;46.60;100684.00;5064172;28;1902;-58
2023/12/20 09:09:04;;;;;;;;;;;;;;;17.15;45.83;100693.25;5075950;28;1122;-59
2023/12/20 09:11:30;;;;;;;;;;;;;;;16.80;46.32;100673.00;5075502;28;1138;-56
2023/12/20 09:13:55;;;;;;;;;;;;;;;16.32;46.98;100668.63;5068284;28;1285;-58
2023/12/20 09:16:21;;;;;;;;;;;;;;;17.04;46.27;100668.59;5067655;28;1176;-59
2023/12/20 09:18:46;;;;;;;;;;;;;;;17.48;45.02;100649.72;5062116;28;1007;-59
2023/12/20 09:21:12;;;;;;;;;;;;;;;16.55;46.70;100655.44;5074304;28;1352;-59
2023/12/20 09:23:38;;;;;;;;;;;;;;;16.40;46.04;100650.81;5071300;28;963;-59
2023/12/20 09:26:04;;;;;;;;;;;;;;;17.50;45.20;100645.59;5062409;28;1962;-60
2023/12/20 09:28:29;;;;;;;;;;;;;;;17.29;45.35;100647.59;5064444;28;1003;-58
2023/12/20 09:30:55;;;;;;;;;;;;;;;16.57;46.48;100632.13;5073695;28;1055;-58
2023/12/20 09:33:20;;;;;;;;;;;;;;;16.36;46.13;100638.75;5072779;28;1106;-58
2023/12/20 09:35:46;;;;;;;;;;;;;;;17.92;44.22;100625.00;5075411;28;1048;-58
2023/12/20 09:38:12;;;;;;;;;;;;;;;16.99;46.14;100621.06;5076019;28;1167;-58
2023/12/20 09:40:38;;;;;;;;;;;;;;;16.58;46.29;100611.00;5075808;28;1115;-57
2023/12/20 09:43:04;;;;;;;;;;;;;;;16.31;46.32;100608.56;5072869;28;1044;-58
2023/12/20 09:45:30;;;;;;;;;;;;;;;16.12;45.81;100605.53;5065423;28;967;-62
2023/12/20 09:47:56;;;;;;;;;;;;;;;17.39;45.33;100600.84;5061919;28;1969;-58
2023/12/20 09:50:21;;;;;;;;;;;;;;;16.76;46.45;100590.38;5070322;28;849;-60
2023/12/20 09:52:50;;;;;;;;;;;;;;;16.27;46.71;100585.50;5068779;28;951;-58
2023/12/20 09:55:17;;;;;;;;;;;;;;;17.81;44.67;100578.56;5071036;28;1002;-58
2023/12/20 09:57:42;;;;;;;;;;;;;;;16.85;46.46;100585.13;5079172;28;1273;-58
2023/12/20 10:00:08;;;;;;;;;;;;;;;16.68;46.63;100574.47;5066897;28;918;-57
2023/12/20 10:02:38;;;;;;;;;;;;;;;17.22;45.49;100567.38;5070613;28;1199;-59
2023/12/20 10:05:04;;;;;;;;;;;;;;;16.64;46.39;100563.22;5061531;28;1015;-58
2023/12/20 10:07:29;;;;;;;;;;;;;;;16.33;46.52;100563.28;5052415;28;1909;-58
2023/12/20 10:09:56;;;;;;;;;;;;;;;17.16;45.76;100558.34;5072919;28;1073;-60
2023/12/20 10:12:21;;;;;;;;;;;;;;;17.50;45.06;100562.28;5069912;28;1074;-56
2023/12/20 10:14:47;;;;;;;;;;;;;;;16.65;46.36;100559.38;5069041;28;928;-54
2023/12/20 10:17:12;;;;;;;;;;;;;;;16.48;46.03;100556.94;5069069;28;1190;-55
2023/12/20 10:19:38;;;;;;;;;;;;;;;16.95;46.27;100552.13;5070812;28;1051;-57
2023/12/20 10:22:06;;;;;;;;;;;;;;;17.16;45.91;100552.03;5077549;28;920;-58
2023/12/20 10:24:32;;;;;;;;;;;;;;;16.48;46.63;100540.47;5078321;28;1010;-58
2023/12/20 10:27:06;;;;;;;;;;;;;;;17.17;46.06;100538.03;5072684;28;1918;-60
2023/12/20 10:29:40;;;;;;;;;;;;;;;17.49;45.09;100533.16;5078703;28;1190;-59
2023/12/20 10:32:26;;;;;;;;;;;;;;;16.71;46.33;100529.97;5053724;28;1512;-59
2023/12/20 10:34:51;;;;;;;;;;;;;;;16.40;46.24;100524.56;5068321;28;1202;-59
2023/12/20 10:37:17;;;;;;;;;;;;;;;16.24;45.95;100519.13;5074726;28;865;-58
2023/12/20 10:39:43;;;;;;;;;;;;;;;17.77;44.53;100502.13;5062533;28;862;-59
2023/12/20 10:42:09;;;;;;;;;;;;;;;16.78;46.33;100500.28;5070373;28;828;-57
2023/12/20 10:44:35;;;;;;;;;;;;;;;16.50;46.59;100499.03;5073937;28;941;-57
2023/12/20 10:47:00;;;;;;;;;;;;;;;17.54;45.20;100508.38;5073795;28;1901;-57
2023/12/20 10:49:26;;;;;;;;;;;;;;;17.20;45.89;100503.66;5043319;28;1130;-57
2023/12/20 10:51:52;;;;;;;;;;;;;;;16.65;46.51;100501.72;5048212;28;910;-58
2023/12/20 10:54:18;;;;;;;;;;;;;;;16.45;46.28;100483.38;5048242;28;985;-58
2023/12/20 10:56:43;;;;;;;;;;;;;;;16.24;46.21;100490.84;5065633;28;1064;-58
2023/12/20 10:59:09;;;;;;;;;;;;;;;17.28;46.07;100481.91;5073708;28;1078;-57
2023/12/20 11:01:35;;;;;;;;;;;;;;;17.19;46.06;100488.28;5052725;28;1289;-58
2023/12/20 11:04:01;;;;;;;;;;;;;;;16.71;46.32;100484.09;5066569;28;1293;-58
2023/12/20 11:06:32;;;;;;;;;;;;;;;17.79;44.73;100477.09;5069585;28;1909;-57
2023/12/20 11:09:08;;;;;;;;;;;;;;;16.86;46.44;100474.97;5051746;28;1143;-56
2023/12/20 11:11:55;;;;;;;;;;;;;;;17.81;44.76;100474.88;5057484;28;1262;-58
2023/12/20 11:14:25;;;;;;;;;;;;;;;17.30;45.46;100470.63;5056704;28;918;-59
2023/12/20 11:16:51;;;;;;;;;;;;;;;16.83;45.98;100455.50;5057641;28;926;-58
2023/12/20 11:19:16;;;;;;;;;;;;;;;16.85;46.43;100461.53;5069413;28;1085;-59
2023/12/20 11:21:42;;;;;;;;;;;;;;;17.52;45.39;100461.94;5067003;28;1117;-59
2023/12/20 11:24:08;;;;;;;;;;;;;;;16.95;46.38;100456.00;5068634;28;1239;-58
2023/12/20 11:26:33;;;;;;;;;;;;;;;18.54;42.90;100448.25;5071072;28;1972;-60
2023/12/20 11:29:17;;;;;;;;;;;;;;;17.52;45.03;100455.63;5069943;28;1140;-58
2023/12/20 11:31:43;;;;;;;;;;;;;;;16.99;45.79;100448.03;5065401;28;1115;-57
2023/12/20 11:34:14;;;;;;;;;;;;;;;16.93;45.83;100439.81;5067610;28;902;-57
2023/12/20 11:36:40;;;;;;;;;;;;;;;17.53;45.40;100438.00;5071801;28;991;-59
2023/12/20 11:39:08;;;;;;;;;;;;;;;16.90;46.07;100434.06;5066327;28;979;-57
2023/12/20 11:41:34;;;;;;;;;;;;;;;17.06;46.07;100435.59;5074420;28;1086;-61
2023/12/20 11:44:00;;;;;;;;;;;;;;;17.62;44.79;100422.53;5071298;28;1357;-59
2023/12/20 11:46:26;;;;;;;;;;;;;;;17.47;45.50;100422.66;5068913;28;1969;-56
2023/12/20 11:48:52;;;;;;;;;;;;;;;18.86;42.43;100416.44;5068569;28;1124;-60
2023/12/20 11:51:17;;;;;;;;;;;;;;;17.69;44.94;100412.00;5069574;28;1159;-57
2023/12/20 11:53:43;;;;;;;;;;;;;;;17.17;45.44;100417.13;5069591;28;1068;-57
2023/12/20 11:56:08;;;;;;;;;;;;;;;16.91;45.73;100405.50;5070096;28;1218;-59
2023/12/20 11:58:34;;;;;;;;;;;;;;;17.75;44.65;100399.88;5069540;28;1298;-60
2023/12/20 12:01:00;;;;;;;;;;;;;;;17.16;45.82;100392.69;5070975;28;1080;-56
2023/12/20 12:03:25;;;;;;;;;;;;;;;16.82;46.05;100382.47;5067111;28;997;-58
2023/12/20 12:05:51;;;;;;;;;;;;;;;17.78;44.91;100388.28;5059752;28;934;-59
2023/12/20 12:08:17;;;;;;;;;;;;;;;17.23;45.63;100377.50;5062410;28;1905;-57
2023/12/20 12:10:42;;;;;;;;;;;;;;;16.85;46.11;100370.91;5074610;28;1111;-56
2023/12/20 12:13:09;;;;;;;;;;;;;;;17.96;44.37;100366.66;5072236;28;987;-58
2023/12/20 12:15:34;;;;;;;;;;;;;;;17.12;46.14;100370.44;5072655;28;1007;-59
2023/12/20 12:18:00;;;;;;;;;;;;;;;18.05;44.34;100362.16;5070966;28;1071;-61
2023/12/20 12:20:25;;;;;;;;;;;;;;;17.57;45.12;100354.69;5073716;28;1031;-59
2023/12/20 12:23:00;;;;;;;;;;;;;;;17.10;45.73;100351.50;5077167;28;1047;-59
2023/12/20 12:25:26;;;;;;;;;;;;;;;16.84;45.58;100350.03;5062460;28;1179;-60
2023/12/20 12:27:52;;;;;;;;;;;;;;;17.86;44.51;100345.53;5072725;28;1910;-60
2023/12/20 12:30:18;;;;;;;;;;;;;;;17.02;45.92;100349.38;5067456;28;1080;-58
2023/12/20 12:32:44;;;;;;;;;;;;;;;16.75;45.98;100350.66;5073961;28;1004;-59
2023/12/20 12:35:09;;;;;;;;;;;;;;;17.93;44.47;100336.97;5076512;28;1063;-60
2023/12/20 12:37:35;;;;;;;;;;;;;;;17.03;46.13;100334.53;5068145;28;1025;-60
2023/12/20 12:40:01;;;;;;;;;;;;;;;17.03;46.22;100344.72;5048230;28;1221;-58
2023/12/20 12:42:28;;;;;;;;;;;;;;;18.03;44.17;100339.59;5066098;28;1165;-57